Aviation Digital Data Service (ADDS)

Output produced by METARs form (0516 UTC 25 June 2017)
found at http://aviationweather.gov/adds/metars/
 
KSAN 250340Z 2504/2606 31007KT P6SM BKN008 
     TEMPO 2504/2506 SCT008 
     FM251000 VRB05KT 2SM BR VCFG BKN004 
     FM251600 VRB05KT 6SM HZ SCT008 
     FM252000 29011KT P6SM SKC 
     FM260500 VRB06KT P6SM SCT005